Time;durP1;ratioP1;P1;durP2;ratioP2;P2;SDS_P1;SDS_P2;PMS_P1;PMS_P2;Temp;Humidity;BMP_temperature;BMP_pressure;BME280_temperature;BME280_humidity;BME280_pressure;Samples;Min_cycle;Max_cycle;Signal;HPM_P1;HPM_P2
2022/05/02 00:02:20;;;;;;;0.10;0.10;;;5.10;99.90;;;;;;5079185;28;20040;-87
2022/05/02 00:04:47;;;;;;;0.13;0.13;;;5.30;99.90;;;;;;5111642;28;20044;-82
2022/05/02 00:07:14;;;;;;;0.10;0.10;;;5.10;99.90;;;;;;5078833;28;20131;-86
2022/05/02 00:09:40;;;;;;;0.20;0.20;;;5.70;99.90;;;;;;5101387;28;20036;-79
2022/05/02 00:12:08;;;;;;;0.10;0.10;;;5.10;99.90;;;;;;5112066;28;20125;-85
2022/05/02 00:14:35;;;;;;;0.20;0.20;;;5.00;99.90;;;;;;5113640;28;20040;-86
2022/05/02 00:17:03;;;;;;;0.20;0.20;;;5.00;99.90;;;;;;5096276;28;20068;-86
2022/05/02 00:19:29;;;;;;;0.20;0.20;;;5.00;99.90;;;;;;5096236;28;20066;-87
2022/05/02 00:21:56;;;;;;;0.10;0.10;;;5.00;99.90;;;;;;5112491;28;20071;-80
2022/05/02 00:24:23;;;;;;;0.10;0.10;;;5.00;99.90;;;;;;5128357;28;20055;-79
2022/05/02 00:26:51;;;;;;;0.20;0.20;;;5.00;99.90;;;;;;5095483;28;20047;-87
2022/05/02 00:29:17;;;;;;;0.10;0.10;;;4.90;99.90;;;;;;5078796;28;20105;-79
2022/05/02 00:31:45;;;;;;;0.10;0.10;;;5.00;99.90;;;;;;5108824;28;20039;-87
2022/05/02 00:34:12;;;;;;;0.20;0.20;;;4.80;99.90;;;;;;5128375;28;20565;-79
2022/05/02 00:36:39;;;;;;;0.20;0.20;;;5.00;99.90;;;;;;5128869;28;20044;-87
2022/05/02 00:39:06;;;;;;;0.20;0.20;;;5.20;99.90;;;;;;5111276;28;20503;-79
2022/05/02 00:41:33;;;;;;;0.17;0.17;;;5.40;99.90;;;;;;5110484;28;20040;-87
2022/05/02 00:44:00;;;;;;;0.20;0.20;;;4.80;99.90;;;;;;5111888;28;20043;-79
2022/05/02 00:46:27;;;;;;;0.20;0.20;;;4.80;99.90;;;;;;5111072;28;20036;-86
2022/05/02 00:48:54;;;;;;;0.20;0.20;;;4.80;99.90;;;;;;5112140;28;20126;-87
2022/05/02 00:51:23;;;;;;;0.10;0.10;;;4.80;99.90;;;;;;5112127;28;20123;-79
2022/05/02 00:53:52;;;;;;;0.30;0.30;;;4.70;99.90;;;;;;5112018;28;20066;-86
2022/05/02 00:56:23;;;;;;;0.20;0.20;;;4.80;99.90;;;;;;5110876;28;20051;-87
2022/05/02 00:58:50;;;;;;;0.20;0.20;;;4.70;99.90;;;;;;5111879;28;20101;-80
2022/05/02 01:01:17;;;;;;;0.20;0.20;;;4.90;99.90;;;;;;5112632;28;20040;-87
2022/05/02 01:03:44;;;;;;;0.20;0.20;;;4.90;99.90;;;;;;5115384;28;20047;-87
2022/05/02 01:08:57;;;;;;;0.20;0.20;;;5.00;99.90;;;;;;5119774;28;20046;-80
2022/05/02 01:11:23;;;;;;;0.20;0.20;;;4.60;99.90;;;;;;5098180;28;20046;-87
2022/05/02 01:13:51;;;;;;;0.20;0.20;;;4.70;99.90;;;;;;5110488;28;20497;-79
2022/05/02 01:16:23;;;;;;;0.20;0.20;;;4.60;99.90;;;;;;5109346;28;20087;-80
2022/05/02 01:18:51;;;;;;;0.20;0.20;;;4.60;99.90;;;;;;5110441;28;20136;-86
2022/05/02 01:21:24;;;;;;;0.15;0.15;;;5.20;99.90;;;;;;5115138;28;20074;-87
2022/05/02 01:23:59;;;;;;;0.20;0.20;;;4.60;99.90;;;;;;5131269;28;20122;-79
2022/05/02 01:26:26;;;;;;;0.10;0.10;;;4.60;99.90;;;;;;5147540;28;20088;-79
2022/05/02 01:28:55;;;;;;;0.20;0.20;;;4.60;99.90;;;;;;5113549;28;20039;-87
2022/05/02 01:31:22;;;;;;;0.20;0.20;;;4.60;99.90;;;;;;5113407;28;20035;-87
2022/05/02 01:33:50;;;;;;;0.20;0.20;;;5.30;99.90;;;;;;5127757;28;20476;-79
2022/05/02 01:36:18;;;;;;;0.20;0.20;;;5.10;99.90;;;;;;5122603;28;20062;-87
2022/05/02 01:38:45;;;;;;;0.10;0.10;;;5.10;99.90;;;;;;5111051;28;20434;-87
2022/05/02 01:41:12;;;;;;;0.20;0.20;;;5.10;99.90;;;;;;5110294;28;20149;-80
2022/05/02 01:43:40;;;;;;;0.20;0.20;;;4.60;99.90;;;;;;5093662;28;20066;-80
2022/05/02 01:46:07;;;;;;;0.10;0.10;;;4.80;99.90;;;;;;5093804;28;20443;-87
2022/05/02 01:48:35;;;;;;;0.20;0.20;;;4.40;99.90;;;;;;5093847;28;20040;-79
2022/05/02 01:51:02;;;;;;;0.13;0.13;;;4.40;99.90;;;;;;5093534;28;20047;-87
2022/05/02 01:53:29;;;;;;;0.20;0.20;;;4.50;99.90;;;;;;5094250;28;20040;-87
2022/05/02 01:55:56;;;;;;;0.10;0.10;;;4.40;99.90;;;;;;5109790;28;20044;-86
2022/05/02 01:58:23;;;;;;;0.20;0.20;;;4.30;99.90;;;;;;5110434;28;20412;-86
2022/05/02 02:00:50;;;;;;;0.20;0.20;;;4.30;99.90;;;;;;5110616;28;20047;-79
2022/05/02 02:03:16;;;;;;;0.20;0.20;;;4.40;99.90;;;;;;5109597;28;20039;-87
2022/05/02 02:05:49;;;;;;;0.20;0.20;;;5.00;99.90;;;;;;5094118;28;20047;-88
2022/05/02 02:08:33;;;;;;;0.20;0.20;;;4.40;99.90;;;;;;5077810;28;20071;-87
2022/05/02 02:11:03;;;;;;;0.17;0.17;;;4.20;99.90;;;;;;5145374;28;20096;-79
2022/05/02 02:13:30;;;;;;;0.10;0.10;;;4.20;99.90;;;;;;5147671;28;20043;-87
2022/05/02 02:15:57;;;;;;;0.20;0.20;;;4.10;99.90;;;;;;5113884;28;20043;-87
2022/05/02 02:18:24;;;;;;;0.13;0.13;;;4.10;99.90;;;;;;5128110;28;20032;-87
2022/05/02 02:20:53;;;;;;;0.20;0.20;;;4.20;99.90;;;;;;5110057;28;20498;-79
2022/05/02 02:23:21;;;;;;;0.20;0.20;;;4.20;99.90;;;;;;5110813;28;20562;-79
2022/05/02 02:25:48;;;;;;;0.20;0.20;;;4.10;99.90;;;;;;5094274;28;20567;-79
2022/05/02 02:28:15;;;;;;;0.20;0.20;;;4.00;99.90;;;;;;5096002;28;20144;-79
2022/05/02 02:30:42;;;;;;;0.20;0.20;;;4.00;99.90;;;;;;5116407;28;20046;-79
2022/05/02 02:33:10;;;;;;;0.20;0.20;;;4.00;99.90;;;;;;5118844;28;20034;-87
2022/05/02 02:35:36;;;;;;;0.20;0.20;;;4.40;99.90;;;;;;5134099;28;20043;-87
2022/05/02 02:38:03;;;;;;;0.13;0.13;;;4.00;99.90;;;;;;5134853;28;20445;-87
2022/05/02 02:40:31;;;;;;;0.20;0.20;;;4.00;99.90;;;;;;5147189;28;20094;-79
2022/05/02 02:43:01;;;;;;;0.20;0.20;;;4.00;99.90;;;;;;5097283;28;20039;-79
2022/05/02 02:45:27;;;;;;;0.20;0.20;;;4.80;99.90;;;;;;5096424;28;20051;-79
2022/05/02 02:47:54;;;;;;;0.20;0.20;;;3.50;99.90;;;;;;5097614;28;20036;-80
2022/05/02 02:50:21;;;;;;;0.20;0.20;;;3.90;99.90;;;;;;5096873;28;20036;-79
2022/05/02 02:52:47;;;;;;;0.20;0.20;;;3.90;99.90;;;;;;5097044;28;20408;-79
2022/05/02 02:55:14;;;;;;;0.20;0.20;;;3.80;99.90;;;;;;5079910;28;20450;-87
2022/05/02 02:57:41;;;;;;;0.20;0.20;;;3.80;99.90;;;;;;5080321;28;20852;-79
2022/05/02 03:00:08;;;;;;;0.20;0.20;;;4.20;99.90;;;;;;5096591;28;20047;-87
2022/05/02 03:02:40;;;;;;;0.30;0.30;;;3.80;99.90;;;;;;5096264;28;20382;-79
2022/05/02 03:07:53;;;;;;;0.30;0.30;;;3.70;99.90;;;;;;5115558;28;20516;-79
2022/05/02 03:10:20;;;;;;;0.20;0.20;;;3.70;99.90;;;;;;5096233;28;20040;-79
2022/05/02 03:12:47;;;;;;;0.20;0.20;;;3.70;99.90;;;;;;5113489;28;20044;-80
2022/05/02 03:15:13;;;;;;;0.20;0.20;;;4.20;99.90;;;;;;5095564;28;20047;-86
2022/05/02 03:17:40;;;;;;;0.20;0.20;;;4.00;99.90;;;;;;5079952;28;20085;-79
2022/05/02 03:20:07;;;;;;;0.20;0.20;;;3.60;99.90;;;;;;5096562;28;20153;-79
2022/05/02 03:22:34;;;;;;;0.20;0.20;;;3.60;99.90;;;;;;5080050;28;20090;-87
2022/05/02 03:25:01;;;;;;;0.10;0.10;;;3.60;99.90;;;;;;5096092;28;20115;-79
2022/05/02 03:27:27;;;;;;;0.20;0.20;;;3.60;99.90;;;;;;5112788;28;20048;-87
2022/05/02 03:29:54;;;;;;;0.20;0.20;;;3.60;99.90;;;;;;5096702;28;20377;-79
2022/05/02 03:32:21;;;;;;;0.20;0.20;;;3.60;99.90;;;;;;5095661;28;20047;-79
2022/05/02 03:34:48;;;;;;;0.20;0.20;;;3.60;99.90;;;;;;5112319;28;20048;-79
2022/05/02 03:37:14;;;;;;;0.20;0.20;;;3.50;99.90;;;;;;5079197;28;20040;-86
2022/05/02 03:39:41;;;;;;;0.20;0.20;;;3.50;99.90;;;;;;5095139;28;20040;-79
2022/05/02 03:42:08;;;;;;;0.10;0.10;;;3.50;99.90;;;;;;5112279;28;20044;-86
2022/05/02 03:44:35;;;;;;;0.28;0.28;;;3.50;99.90;;;;;;5114853;28;20043;-86
2022/05/02 03:47:03;;;;;;;0.20;0.20;;;3.50;99.90;;;;;;5113448;28;20104;-86
2022/05/02 03:49:29;;;;;;;0.20;0.20;;;3.40;99.90;;;;;;5078847;28;20040;-87
2022/05/02 03:51:56;;;;;;;0.20;0.20;;;4.10;99.90;;;;;;5112522;28;20046;-79
2022/05/02 03:54:23;;;;;;;0.38;0.38;;;3.40;99.90;;;;;;5095448;28;20059;-87
2022/05/02 03:56:49;;;;;;;0.20;0.20;;;4.10;99.90;;;;;;5079319;28;20039;-79
2022/05/02 03:59:16;;;;;;;0.20;0.20;;;3.70;99.90;;;;;;5078359;28;20105;-79
2022/05/02 04:01:43;;;;;;;0.20;0.20;;;3.80;99.90;;;;;;5095894;28;20123;-86
2022/05/02 04:04:09;;;;;;;0.10;0.10;;;3.80;99.90;;;;;;5094028;28;20044;-79
2022/05/02 04:06:36;;;;;;;0.20;0.20;;;3.90;99.90;;;;;;5077817;28;20119;-88
2022/05/02 04:09:03;;;;;;;0.20;0.20;;;3.40;99.90;;;;;;5079007;28;20089;-86
2022/05/02 04:11:30;;;;;;;0.20;0.20;;;3.70;99.90;;;;;;5094665;28;20039;-79
2022/05/02 04:13:56;;;;;;;0.22;0.22;;;3.50;99.90;;;;;;5078705;28;20105;-79
2022/05/02 04:16:23;;;;;;;0.20;0.20;;;4.30;99.90;;;;;;5128058;28;20048;-86
2022/05/02 04:18:50;;;;;;;0.15;0.15;;;3.90;99.90;;;;;;5078939;28;20036;-86
2022/05/02 04:21:17;;;;;;;0.20;0.20;;;3.50;99.90;;;;;;5095009;28;20039;-80
2022/05/02 04:23:43;;;;;;;0.17;0.17;;;3.60;99.90;;;;;;5110382;28;20092;-85
2022/05/02 04:26:10;;;;;;;0.32;0.30;;;3.60;99.90;;;;;;5111646;28;20561;-79
2022/05/02 04:28:37;;;;;;;0.20;0.20;;;3.60;99.90;;;;;;5127951;28;20064;-86
2022/05/02 04:31:06;;;;;;;0.20;0.20;;;3.70;99.90;;;;;;5128665;28;20127;-79
2022/05/02 04:33:33;;;;;;;0.10;0.10;;;3.70;99.90;;;;;;5111217;28;20129;-79
2022/05/02 04:35:59;;;;;;;0.20;0.20;;;3.70;99.90;;;;;;5110391;28;20089;-79
2022/05/02 04:38:28;;;;;;;0.10;0.10;;;4.20;99.90;;;;;;5094121;28;20040;-86
2022/05/02 04:40:56;;;;;;;0.20;0.20;;;3.80;99.90;;;;;;5079310;28;20044;-87
2022/05/02 04:43:24;;;;;;;0.20;0.20;;;3.80;99.90;;;;;;5116764;28;20032;-79
2022/05/02 04:45:51;;;;;;;0.20;0.20;;;4.10;99.90;;;;;;5132118;28;20093;-80
2022/05/02 04:48:18;;;;;;;0.30;0.30;;;3.90;99.90;;;;;;5148466;28;20639;-79
2022/05/02 04:50:45;;;;;;;0.17;0.17;;;3.90;99.90;;;;;;5097540;28;20130;-79
2022/05/02 04:53:12;;;;;;;0.20;0.20;;;4.30;99.90;;;;;;5130092;28;20086;-86
2022/05/02 04:55:38;;;;;;;0.10;0.10;;;4.00;99.90;;;;;;5077219;28;20492;-86
2022/05/02 04:58:05;;;;;;;0.10;0.10;;;4.30;99.90;;;;;;5094291;28;20044;-79
2022/05/02 05:00:32;;;;;;;0.20;0.20;;;4.10;99.90;;;;;;5093955;28;20040;-79
2022/05/02 05:02:59;;;;;;;0.20;0.20;;;4.20;99.90;;;;;;5128159;28;20066;-79
2022/05/02 05:05:26;;;;;;;0.20;0.20;;;4.30;99.90;;;;;;5105324;28;20777;-86
2022/05/02 05:07:52;;;;;;;0.20;0.20;;;4.40;99.90;;;;;;5094121;28;20040;-79
2022/05/02 05:10:19;;;;;;;0.20;0.20;;;4.50;99.90;;;;;;5111299;28;20044;-87
2022/05/02 05:13:06;;;;;;;0.20;0.20;;;4.50;99.90;;;;;;5110413;28;20542;-87
2022/05/02 05:16:20;;;;;;;0.20;0.20;;;4.60;99.90;;;;;;5133613;28;20039;-86
2022/05/02 05:19:13;;;;;;;0.20;0.20;;;4.70;99.90;;;;;;5109819;28;20123;-79
2022/05/02 05:22:14;;;;;;;0.15;0.15;;;4.80;99.90;;;;;;5110311;28;20036;-86
2022/05/02 05:24:49;;;;;;;0.20;0.20;;;4.90;99.90;;;;;;5126649;28;20047;-79
2022/05/02 05:27:22;;;;;;;0.20;0.20;;;4.90;99.90;;;;;;5109823;28;20089;-86
2022/05/02 05:30:07;;;;;;;0.20;0.20;;;5.00;99.90;;;;;;5110265;28;20400;-87
2022/05/02 05:32:48;;;;;;;0.15;0.15;;;5.10;99.90;;;;;;5093685;28;20040;-79
2022/05/02 05:35:40;;;;;;;0.20;0.20;;;5.20;99.90;;;;;;5110304;28;20044;-87
2022/05/02 05:38:14;;;;;;;0.20;0.20;;;5.40;99.90;;;;;;5110336;28;20059;-79
2022/05/02 05:40:42;;;;;;;0.20;0.20;;;5.40;99.90;;;;;;5093772;28;20032;-86
2022/05/02 05:43:24;;;;;;;0.20;0.20;;;5.50;99.90;;;;;;5109991;28;20048;-86
2022/05/02 05:46:12;;;;;;;0.20;0.20;;;5.60;99.90;;;;;;5109672;28;20040;-86
2022/05/02 05:49:02;;;;;;;0.20;0.20;;;5.70;99.90;;;;;;5109766;28;20493;-79
2022/05/02 05:51:53;;;;;;;0.20;0.20;;;5.80;99.90;;;;;;5127166;28;20498;-82
2022/05/02 05:54:57;;;;;;;0.20;0.20;;;5.90;99.90;;;;;;5109682;28;20108;-87
2022/05/02 05:57:46;;;;;;;0.15;0.15;;;6.00;99.90;;;;;;5126702;28;20044;-79
2022/05/02 06:00:14;;;;;;;0.10;0.10;;;6.10;99.90;;;;;;5126973;28;20373;-79
2022/05/02 06:03:00;;;;;;;0.10;0.10;;;6.30;99.90;;;;;;5109243;28;20062;-79
2022/05/02 06:05:27;;;;;;;0.20;0.20;;;6.30;99.90;;;;;;5109920;28;20115;-79
2022/05/02 06:07:55;;;;;;;0.13;0.13;;;6.50;99.90;;;;;;5109602;28;20055;-87
2022/05/02 06:10:25;;;;;;;0.10;0.10;;;6.50;99.90;;;;;;5109828;28;20507;-87
2022/05/02 06:12:54;;;;;;;0.20;0.20;;;6.60;99.90;;;;;;5093693;28;20048;-80
2022/05/02 06:18:29;;;;;;;0.20;0.20;;;6.70;99.90;;;;;;5133850;28;20051;-86
2022/05/02 06:21:03;;;;;;;0.10;0.10;;;6.80;99.90;;;;;;5109269;28;20047;-80
2022/05/02 06:23:40;;;;;;;0.10;0.10;;;6.90;99.90;;;;;;5093670;28;20080;-78
2022/05/02 06:26:09;;;;;;;0.10;0.10;;;7.00;99.90;;;;;;5109941;28;20047;-88
2022/05/02 06:28:46;;;;;;;0.10;0.10;;;7.10;99.90;;;;;;5099269;28;20043;-87
2022/05/02 06:31:19;;;;;;;0.10;0.10;;;7.20;99.90;;;;;;5103810;28;20544;-81
2022/05/02 06:33:51;;;;;;;0.10;0.10;;;7.40;99.90;;;;;;5120769;28;20044;-81
2022/05/02 06:36:31;;;;;;;0.10;0.10;;;7.30;99.90;;;;;;5125977;28;20039;-81
2022/05/02 06:39:16;;;;;;;0.10;0.10;;;7.40;99.90;;;;;;5121499;28;20040;-87
2022/05/02 06:42:08;;;;;;;0.20;0.20;;;7.50;99.90;;;;;;5112817;28;20392;-87
2022/05/02 06:45:02;;;;;;;0.10;0.10;;;7.60;99.90;;;;;;5117527;28;20127;-82
2022/05/02 06:47:38;;;;;;;0.10;0.10;;;7.70;99.90;;;;;;5127507;28;20048;-81
2022/05/02 06:50:07;;;;;;;0.10;0.10;;;7.90;99.90;;;;;;5112596;28;20122;-81
2022/05/02 06:52:40;;;;;;;0.15;0.15;;;8.00;99.90;;;;;;5115967;28;20048;-88
2022/05/02 06:55:48;;;;;;;0.10;0.10;;;8.10;99.90;;;;;;5109127;28;20059;-88
2022/05/02 06:58:24;;;;;;;0.10;0.10;;;8.20;99.90;;;;;;5065834;28;20040;-82
2022/05/02 07:01:19;;;;;;;0.10;0.10;;;8.50;99.90;;;;;;5110004;28;20032;-88
2022/05/02 07:03:57;;;;;;;0.10;0.10;;;8.50;99.90;;;;;;5109541;28;20044;-82
2022/05/02 07:06:50;;;;;;;0.10;0.10;;;8.70;99.90;;;;;;5129533;28;20044;-83
2022/05/02 07:09:46;;;;;;;0.10;0.10;;;8.80;99.90;;;;;;5142831;28;20068;-82
2022/05/02 07:12:22;;;;;;;0.10;0.10;;;8.90;99.90;;;;;;5108519;28;20123;-82
2022/05/02 07:15:07;;;;;;;;;;;9.00;99.90;;;;;;5128550;28;20047;-82
2022/05/02 07:17:43;;;;;;;0.10;0.10;;;9.10;99.90;;;;;;5113187;28;19916;-82
2022/05/02 07:20:16;;;;;;;;;;;9.30;99.90;;;;;;5113576;28;20046;-81
2022/05/02 07:22:49;;;;;;;0.10;0.10;;;9.40;99.90;;;;;;5112822;28;19963;-78
2022/05/02 07:25:20;;;;;;;0.10;0.10;;;9.40;99.90;;;;;;5112591;28;20520;-82
2022/05/02 07:28:18;;;;;;;0.10;0.10;;;9.60;99.90;;;;;;5124945;28;20075;-81
2022/05/02 07:30:47;;;;;;;0.10;0.10;;;9.70;99.90;;;;;;5125775;28;20073;-81
2022/05/02 07:33:17;;;;;;;0.10;0.10;;;9.80;99.90;;;;;;5100938;28;20047;-86
2022/05/02 07:35:47;;;;;;;0.10;0.10;;;10.00;99.90;;;;;;5121025;28;20032;-81
2022/05/02 07:38:18;;;;;;;0.10;0.10;;;10.10;99.90;;;;;;5095863;28;20085;-86
2022/05/02 07:41:22;;;;;;;0.35;0.20;;;10.20;99.90;;;;;;5145323;28;20028;-81
2022/05/02 07:43:34;;;;;;;0.10;0.10;;;10.30;99.90;;;;;;5115021;28;20077;-81
2022/05/02 07:46:03;;;;;;;0.15;0.15;;;10.70;99.90;;;;;;5111413;28;20488;-80
2022/05/02 07:48:32;;;;;;;0.10;0.10;;;10.50;99.90;;;;;;5094941;28;20047;-82
2022/05/02 07:51:00;;;;;;;0.10;0.10;;;10.70;99.90;;;;;;5109011;28;20039;-87
2022/05/02 07:53:29;;;;;;;0.10;0.10;;;10.70;99.90;;;;;;5092080;28;20094;-81
2022/05/02 07:55:56;;;;;;;0.10;0.10;;;10.90;99.90;;;;;;5131519;28;20127;-81
2022/05/02 07:58:28;;;;;;;0.10;0.10;;;11.00;99.90;;;;;;5095134;28;20498;-87
2022/05/02 08:00:54;;;;;;;0.10;0.10;;;11.20;99.90;;;;;;5100489;28;20108;-87
2022/05/02 08:03:23;;;;;;;0.10;0.10;;;11.20;99.90;;;;;;5115007;28;20047;-87
2022/05/02 08:05:58;;;;;;;0.10;0.10;;;11.40;99.90;;;;;;5115102;28;20073;-89
2022/05/02 08:08:52;;;;;;;0.00;0.00;;;11.50;99.90;;;;;;5131073;28;20485;-81
2022/05/02 08:11:52;;;;;;;0.10;0.10;;;11.60;99.90;;;;;;5148433;28;20043;-81
2022/05/02 08:14:42;;;;;;;0.10;0.10;;;11.80;99.90;;;;;;5105684;28;20051;-86
2022/05/02 08:17:42;;;;;;;0.10;0.10;;;11.90;99.90;;;;;;5125065;28;20084;-88
2022/05/02 08:20:31;;;;;;;0.00;0.00;;;12.00;99.90;;;;;;5131755;28;20028;-81
2022/05/02 08:29:33;;;;;;;0.20;0.20;;;12.40;99.90;;;;;;5129957;28;20048;-83
2022/05/02 08:32:13;;;;;;;0.20;0.20;;;12.50;99.90;;;;;;5131484;28;20035;-89
2022/05/02 08:34:40;;;;;;;0.00;0.00;;;12.60;99.90;;;;;;5124916;28;20040;-88
2022/05/02 08:37:09;;;;;;;0.00;0.00;;;12.70;99.90;;;;;;5111024;28;20660;-88
2022/05/02 08:40:22;;;;;;;0.00;0.00;;;12.80;99.90;;;;;;5123975;28;20046;-90
2022/05/02 08:43:10;;;;;;;0.20;0.20;;;12.90;99.90;;;;;;5132032;28;20492;-88
2022/05/02 08:46:13;;;;;;;0.00;0.00;;;13.00;99.90;;;;;;5131836;28;20039;-89
2022/05/02 08:48:46;;;;;;;0.00;0.00;;;13.10;99.90;;;;;;5132079;28;20128;-89
2022/05/02 08:51:37;;;;;;;0.10;0.10;;;13.20;99.90;;;;;;5112607;28;20071;-89
2022/05/02 08:54:29;;;;;;;0.00;0.00;;;13.40;99.90;;;;;;5114452;28;20039;-89
2022/05/02 08:57:20;;;;;;;0.10;0.10;;;13.40;99.90;;;;;;5148080;28;20419;-90
2022/05/02 08:59:53;;;;;;;0.25;0.25;;;13.50;99.90;;;;;;5131386;28;20537;-82
2022/05/02 09:02:56;;;;;;;0.00;0.00;;;13.50;99.90;;;;;;5129556;28;20697;-88
2022/05/02 09:05:38;;;;;;;0.10;0.10;;;13.70;99.90;;;;;;5130571;28;20042;-88
2022/05/02 09:08:08;;;;;;;0.10;0.10;;;13.90;99.90;;;;;;5130764;28;20088;-88
2022/05/02 09:11:11;;;;;;;0.00;0.00;;;13.90;99.90;;;;;;5131889;28;20035;-88
2022/05/02 09:13:57;;;;;;;0.00;0.00;;;14.10;99.90;;;;;;5129573;28;20122;-82
2022/05/02 09:16:48;;;;;;;0.03;0.03;;;14.00;99.90;;;;;;5116124;28;20043;-87
2022/05/02 09:19:52;;;;;;;0.10;0.10;;;14.10;99.90;;;;;;5128511;28;20040;-88
2022/05/02 09:22:46;;;;;;;0.10;0.10;;;14.00;99.90;;;;;;5130799;28;20036;-82
2022/05/02 09:25:36;;;;;;;0.00;0.00;;;13.90;99.90;;;;;;5130479;28;20039;-82
2022/05/02 09:28:14;;;;;;;0.25;0.20;;;13.90;99.90;;;;;;5129741;28;20072;-87
2022/05/02 09:30:55;;;;;;;0.10;0.10;;;13.90;99.90;;;;;;5147352;28;20369;-87
2022/05/02 09:33:32;;;;;;;0.00;0.00;;;14.10;99.90;;;;;;5129826;28;20049;-87
2022/05/02 09:36:37;;;;;;;0.00;0.00;;;14.30;99.90;;;;;;5129629;28;20043;-82
2022/05/02 09:39:14;;;;;;;0.00;0.00;;;14.50;99.90;;;;;;5120989;28;20060;-89
2022/05/02 09:41:59;;;;;;;0.10;0.10;;;14.50;99.90;;;;;;5113574;28;20036;-88
2022/05/02 09:50:44;;;;;;;0.20;0.10;;;14.80;99.90;;;;;;5146011;28;20097;-82
2022/05/02 09:53:41;;;;;;;0.00;0.00;;;15.10;99.90;;;;;;5129961;28;20040;-81
2022/05/02 09:56:38;;;;;;;0.00;0.00;;;15.20;99.90;;;;;;5128924;28;20450;-83
2022/05/02 09:59:26;;;;;;;0.00;0.00;;;15.30;99.90;;;;;;5129321;28;20048;-83
2022/05/02 10:02:12;;;;;;;0.00;0.00;;;15.50;99.90;;;;;;5114862;28;20404;-85
2022/05/02 10:05:08;;;;;;;0.00;0.00;;;15.60;99.90;;;;;;5118204;28;20043;-87
2022/05/02 10:08:04;;;;;;;0.00;0.00;;;15.70;99.90;;;;;;5130072;28;20404;-82
2022/05/02 10:11:06;;;;;;;0.15;0.15;;;15.70;98.80;;;;;;5129877;28;20082;-89
2022/05/02 10:13:41;;;;;;;0.00;0.00;;;15.70;98.60;;;;;;5115316;28;20056;-88
2022/05/02 10:16:46;;;;;;;0.00;0.00;;;15.80;99.90;;;;;;5130243;28;20043;-82
2022/05/02 10:19:43;;;;;;;0.28;0.10;;;15.60;97.40;;;;;;5135035;28;20044;-83
2022/05/02 10:22:31;;;;;;;0.05;0.05;;;15.70;97.80;;;;;;5130466;28;20575;-89
2022/05/02 10:25:02;;;;;;;0.00;0.00;;;15.80;99.80;;;;;;5130815;28;20047;-82
2022/05/02 10:28:04;;;;;;;0.00;0.00;;;15.70;99.20;;;;;;5129863;28;20035;-82
2022/05/02 10:30:54;;;;;;;0.43;0.17;;;15.70;95.90;;;;;;5129324;28;20050;-88
2022/05/02 10:33:35;;;;;;;0.08;0.08;;;15.90;97.60;;;;;;5127325;28;20127;-82
2022/05/02 10:36:04;;;;;;;0.00;0.00;;;16.00;98.00;;;;;;5129607;28;20044;-88
2022/05/02 10:38:34;;;;;;;0.00;0.00;;;16.00;98.70;;;;;;5130215;28;20040;-82
2022/05/02 10:41:10;;;;;;;0.20;0.20;;;16.10;98.80;;;;;;5146744;28;20495;-86
2022/05/02 10:43:46;;;;;;;0.10;0.10;;;16.20;95.90;;;;;;5129490;28;20122;-85
2022/05/02 10:46:13;;;;;;;0.75;0.38;;;16.10;97.20;;;;;;5130881;28;20039;-89
2022/05/02 10:49:33;;;;;;;0.08;0.08;;;15.90;96.10;;;;;;5098536;28;20403;-85
2022/05/02 10:52:15;;;;;;;0.55;0.17;;;15.50;97.00;;;;;;5076517;28;20041;-89
2022/05/02 10:54:48;;;;;;;0.20;0.20;;;15.10;96.10;;;;;;5133351;28;20104;-84
2022/05/02 10:57:30;;;;;;;0.10;0.03;;;15.20;96.90;;;;;;5133312;28;20040;-83
2022/05/02 11:00:06;;;;;;;0.22;0.15;;;15.30;98.80;;;;;;5125376;28;20071;-86
2022/05/02 11:02:38;;;;;;;0.25;0.17;;;15.60;97.80;;;;;;5119414;28;20039;-83
2022/05/02 11:05:06;;;;;;;0.13;0.10;;;15.80;96.20;;;;;;5133278;28;20040;-87
2022/05/02 11:07:48;;;;;;;0.20;0.20;;;16.00;98.50;;;;;;5133656;28;20040;-82
2022/05/02 11:10:20;;;;;;;0.20;0.20;;;16.10;96.60;;;;;;5132873;28;20135;-82
2022/05/02 11:13:03;;;;;;;0.10;0.10;;;16.10;94.80;;;;;;5149845;28;20496;-83
2022/05/02 11:15:53;;;;;;;0.05;0.05;;;16.10;93.30;;;;;;5131940;28;20040;-84
2022/05/02 11:21:45;;;;;;;0.25;0.10;;;16.30;96.20;;;;;;5130553;28;20513;-87
2022/05/02 11:24:25;;;;;;;0.40;0.20;;;16.10;91.10;;;;;;5133092;28;20043;-87
2022/05/02 11:27:18;;;;;;;0.00;0.00;;;16.20;93.50;;;;;;5133918;28;20043;-87
2022/05/02 11:30:01;;;;;;;0.15;0.10;;;16.30;93.30;;;;;;5133008;28;20422;-84
2022/05/02 11:32:34;;;;;;;0.15;0.10;;;16.50;93.00;;;;;;5133504;28;20063;-88
2022/05/02 11:35:06;;;;;;;0.40;0.20;;;16.60;91.20;;;;;;5133228;28;20130;-86
2022/05/02 11:37:37;;;;;;;0.20;0.20;;;16.70;91.20;;;;;;5133779;28;20036;-87
2022/05/02 11:40:09;;;;;;;0.40;0.28;;;16.60;90.20;;;;;;5132765;28;20039;-87
2022/05/02 11:42:42;;;;;;;0.47;0.40;;;16.50;90.90;;;;;;5133228;28;20114;-84
2022/05/02 11:45:10;;;;;;;0.08;0.08;;;16.50;87.90;;;;;;5149485;28;20165;-84
2022/05/02 11:47:40;;;;;;;0.20;0.20;;;16.50;90.10;;;;;;5133426;28;20051;-89
2022/05/02 11:50:10;;;;;;;0.98;0.40;;;16.50;85.30;;;;;;5132767;28;20047;-84
2022/05/02 11:52:38;;;;;;;0.45;0.38;;;16.70;88.30;;;;;;5115889;28;20036;-84
2022/05/02 11:55:07;;;;;;;0.30;0.20;;;16.80;88.30;;;;;;5131351;28;20112;-87
2022/05/02 11:57:40;;;;;;;0.47;0.30;;;16.90;87.30;;;;;;5150233;28;20492;-88
2022/05/02 12:00:07;;;;;;;0.15;0.13;;;16.90;82.90;;;;;;5148602;28;20043;-84
2022/05/02 12:02:37;;;;;;;0.90;0.45;;;16.90;84.80;;;;;;5149229;28;20043;-85
2022/05/02 12:05:25;;;;;;;0.93;0.60;;;17.00;87.80;;;;;;5132834;28;20043;-88
2022/05/02 12:07:53;;;;;;;0.73;0.40;;;16.80;87.30;;;;;;5129168;28;20048;-88
2022/05/02 12:10:32;;;;;;;0.25;0.20;;;16.80;88.30;;;;;;5132695;28;20082;-84
2022/05/02 12:13:00;;;;;;;0.47;0.32;;;16.80;89.20;;;;;;5133231;28;20043;-88
2022/05/02 12:15:28;;;;;;;0.43;0.40;;;16.70;88.30;;;;;;5132031;28;20043;-83
2022/05/02 12:17:59;;;;;;;0.70;0.17;;;16.60;87.70;;;;;;5132330;28;20067;-83
2022/05/02 12:20:33;;;;;;;0.17;0.17;;;16.50;86.90;;;;;;5131724;28;20117;-82
2022/05/02 12:23:16;;;;;;;0.40;0.30;;;16.60;88.50;;;;;;5131408;28;20053;-82
2022/05/02 12:25:56;;;;;;;0.17;0.15;;;16.50;86.70;;;;;;5131929;28;20096;-82
2022/05/02 12:28:41;;;;;;;0.47;0.22;;;16.50;87.20;;;;;;5111368;28;20488;-83
2022/05/02 12:31:14;;;;;;;0.10;0.10;;;16.50;87.80;;;;;;5112137;27;20048;-82
2022/05/02 12:33:46;;;;;;;0.20;0.20;;;16.60;86.90;;;;;;5109462;28;20073;-84
2022/05/02 12:36:15;;;;;;;0.25;0.10;;;16.60;84.80;;;;;;5105521;27;20040;-82
2022/05/02 12:39:02;;;;;;;0.13;0.13;;;16.60;87.50;;;;;;5124879;27;20075;-84
2022/05/02 12:41:38;;;;;;;0.20;0.20;;;16.80;87.90;;;;;;5133619;27;21260;-83
2022/05/02 12:44:08;;;;;;;;;;;16.80;88.60;;;;;;5100357;28;20400;-83
2022/05/02 12:46:39;;;;;;;0.13;0.13;;;16.80;84.90;;;;;;5121839;27;19927;-83
2022/05/02 12:49:26;;;;;;;1.55;0.47;;;16.80;87.50;;;;;;5118890;28;20048;-84
2022/05/02 12:51:55;;;;;;;0.63;0.20;;;16.80;87.80;;;;;;5137063;28;20047;-83
2022/05/02 12:54:25;;;;;;;0.65;0.30;;;16.70;85.20;;;;;;5142170;28;20062;-84
2022/05/02 13:02:35;;;;;;;0.35;0.35;;;16.70;86.50;;;;;;5125379;28;20126;-85
2022/05/02 13:05:08;;;;;;;0.20;0.20;;;16.70;85.10;;;;;;5130082;28;20518;-82
2022/05/02 13:07:56;;;;;;;1.33;0.85;;;16.60;85.60;;;;;;5120453;28;20404;-82
2022/05/02 13:10:26;;;;;;;0.10;0.10;;;16.60;84.40;;;;;;5143347;27;20051;-83
2022/05/02 13:12:57;;;;;;;0.52;0.30;;;16.70;88.60;;;;;;5101087;28;20047;-82
2022/05/02 13:15:29;;;;;;;0.63;0.20;;;16.80;88.00;;;;;;5132944;28;20047;-82
2022/05/02 13:17:58;;;;;;;1.20;0.45;;;16.70;83.80;;;;;;5131809;28;20050;-83
2022/05/02 13:20:28;;;;;;;0.35;0.30;;;16.70;85.50;;;;;;5147886;28;20035;-82
2022/05/02 13:23:04;;;;;;;0.28;0.28;;;16.70;86.40;;;;;;5130257;28;20128;-82
2022/05/02 13:26:26;;;;;;;0.32;0.20;;;16.70;85.90;;;;;;5147125;28;20047;-82
2022/05/02 13:29:17;;;;;;;0.88;0.35;;;16.60;82.80;;;;;;5106030;28;20060;-82
2022/05/02 13:31:44;;;;;;;0.60;0.35;;;16.70;82.80;;;;;;5130219;28;20043;-81
2022/05/02 13:34:33;;;;;;;0.05;0.05;;;16.70;83.80;;;;;;5128795;28;20393;-82
2022/05/02 13:37:11;;;;;;;0.00;0.00;;;16.70;86.50;;;;;;5147387;28;20088;-82
2022/05/02 13:40:08;;;;;;;0.08;0.08;;;16.70;85.30;;;;;;5130464;28;20046;-82
2022/05/02 13:42:39;;;;;;;0.10;0.10;;;16.50;86.20;;;;;;5126743;28;20047;-82
2022/05/02 13:45:14;;;;;;;0.10;0.10;;;16.60;86.00;;;;;;5122357;28;20104;-83
2022/05/02 13:47:51;;;;;;;0.13;0.13;;;16.60;85.10;;;;;;5110135;28;20489;-82
2022/05/02 13:50:23;;;;;;;0.10;0.10;;;16.60;86.60;;;;;;5126911;28;20126;-83
2022/05/02 13:53:19;;;;;;;0.10;0.10;;;16.70;84.20;;;;;;5132780;28;20046;-83
2022/05/02 13:56:36;;;;;;;0.30;0.30;;;16.60;82.70;;;;;;5109310;28;20052;-81
2022/05/02 13:59:25;;;;;;;0.20;0.20;;;16.50;83.60;;;;;;5120920;28;20047;-82
2022/05/02 14:02:42;;;;;;;0.85;0.57;;;16.30;84.40;;;;;;5088731;28;20072;-83
2022/05/02 14:05:24;;;;;;;0.17;0.17;;;16.30;83.80;;;;;;5123202;28;20138;-82
2022/05/02 14:07:58;;;;;;;0.15;0.15;;;16.20;84.40;;;;;;5098834;28;20051;-84